Sarh Airport

FTTA · Moyen-Chari, 乍得

TAF FTTA · Sarh Airport

22 七月 06:00 LT
5h
使用的TAF站离机场有474 km的距离
2024年7月22日 07:002024年7月22日 19:00有效
时间
星期一
07:00
星期一
08:00
星期一
09:00
星期一
10:00
星期一
11:00
星期一
12:00
星期一
13:00
30%
星期一
14:00
30%
星期一
15:00
30%
星期一
16:00
30%
星期一
17:00
30%
星期一
18:00
30%
代码
VFR
VFR
VFR
VFR
VFR
VFR
IFR
IFR
IFR
IFR
IFR
IFR
天气
几云
几云
几云
几云
几云
几云
雷暴 雨
雷暴 雨
雷暴 雨
雷暴 雨
雷暴 雨
雷暴 雨
能见度
10 km+
10 km+
10 km+
10 km+
10 km+
10 km+
3 km
3 km
3 km
3 km
3 km
3 km
天花板
-
-
-
-
-
-
-
-
-
-
-
-
220°
220°
220°
220°
220°
220°
220°
220°
220°
220°
220°
220°
220°
220°
220°
220°
220°
220°
220°
220°
220°
220°
220°
220°
速度
5 kt
5 kt
5 kt
5 kt
5 kt
5 kt
5 kt
5 kt
5 kt
5 kt
5 kt
5 kt
阵风
温度/星期日
18:28

原版的

TAF FKKL 220500Z 2206/2218 22005KT 9999 FEW030
PROB30 TEMPO 2212/2218 3000 TSRA SCT020 FEW025CB

TAF Sarh Airport

Sarh Airport是,乍得中的小机场。 该机场位于纬度9,14479和经度18,37472。 该机场有一条跑道: 4/22. 本场的ICAO机场代码为FTTA。 该机场的IATA代码为SRH。 机场在N Djamena FIR中。

该航空气象观测是针对Salak Airport在2024年7月22日 06:00, 当地时间进行的。 从2024年7月22日 07:00到2024年7月22日 19:00, 当地时间有效.

预报

  • 在星期一 07:00和19:00之间

    • 风: 风来自220°方向,速度为5 kt。
    • 能见度: 10 km 或者更多
    • 乌云: 几云在3.000 ft的高度.
  • 暂时在星期一 13:00和19:00之间 ({一个机会)

    • 能见度: 3 km
    • 天气: 雷暴 雨
    • 乌云: 疏云,零星散落的云朵在2.000 ft的高度 和 几云 积雨云在2.500 ft的高度.

白天

今天,太阳从05:35升起,在18:10降落。 这适用于Sarh Airport,世界夏令时可能有所不同。 当地时间与世界标准时间之间的时差为+1 小时。 夏令时目前正在进行中。

报告变更